sensor_id;sensor_type;location;lat;lon;timestamp;P1;durP1;ratioP1;P2;durP2;ratioP2
56477;SDS011;42382;53.210;5.772;2022-10-16T00:00:37;6.35;;;0.65;;
56477;SDS011;42382;53.210;5.772;2022-10-16T00:03:04;6.15;;;0.68;;
56477;SDS011;42382;53.210;5.772;2022-10-16T00:05:30;9.52;;;1.60;;
56477;SDS011;42382;53.210;5.772;2022-10-16T00:07:56;6.72;;;0.60;;
56477;SDS011;42382;53.210;5.772;2022-10-16T00:10:22;6.10;;;0.35;;
56477;SDS011;42382;53.210;5.772;2022-10-16T00:12:47;5.82;;;0.70;;
56477;SDS011;42382;53.210;5.772;2022-10-16T00:15:13;6.22;;;0.60;;
56477;SDS011;42382;53.210;5.772;2022-10-16T00:17:39;7.15;;;0.75;;
56477;SDS011;42382;53.210;5.772;2022-10-16T00:20:04;6.38;;;0.68;;
56477;SDS011;42382;53.210;5.772;2022-10-16T00:22:30;7.88;;;0.32;;
56477;SDS011;42382;53.210;5.772;2022-10-16T00:24:56;6.30;;;0.40;;
56477;SDS011;42382;53.210;5.772;2022-10-16T00:27:22;5.75;;;0.30;;
56477;SDS011;42382;53.210;5.772;2022-10-16T00:29:51;6.68;;;0.50;;
56477;SDS011;42382;53.210;5.772;2022-10-16T00:32:17;7.82;;;0.85;;
56477;SDS011;42382;53.210;5.772;2022-10-16T00:34:43;8.48;;;0.88;;
56477;SDS011;42382;53.210;5.772;2022-10-16T00:37:09;4.95;;;0.40;;
56477;SDS011;42382;53.210;5.772;2022-10-16T00:39:34;4.38;;;0.50;;
56477;SDS011;42382;53.210;5.772;2022-10-16T00:42:00;5.45;;;0.52;;
56477;SDS011;42382;53.210;5.772;2022-10-16T00:49:56;3.75;;;0.28;;
56477;SDS011;42382;53.210;5.772;2022-10-16T00:52:26;3.03;;;0.47;;
56477;SDS011;42382;53.210;5.772;2022-10-16T00:54:52;6.85;;;0.35;;
56477;SDS011;42382;53.210;5.772;2022-10-16T00:57:19;6.07;;;0.60;;
56477;SDS011;42382;53.210;5.772;2022-10-16T00:59:45;5.35;;;0.65;;
56477;SDS011;42382;53.210;5.772;2022-10-16T01:02:12;6.57;;;0.30;;
56477;SDS011;42382;53.210;5.772;2022-10-16T01:04:40;6.95;;;0.30;;
56477;SDS011;42382;53.210;5.772;2022-10-16T01:07:30;6.80;;;0.45;;
56477;SDS011;42382;53.210;5.772;2022-10-16T01:12:59;5.03;;;0.28;;
56477;SDS011;42382;53.210;5.772;2022-10-16T01:15:30;5.47;;;0.20;;
56477;SDS011;42382;53.210;5.772;2022-10-16T01:18:08;6.10;;;0.35;;
56477;SDS011;42382;53.210;5.772;2022-10-16T01:29:25;3.35;;;0.30;;
56477;SDS011;42382;53.210;5.772;2022-10-16T01:31:59;5.90;;;0.30;;
56477;SDS011;42382;53.210;5.772;2022-10-16T01:34:31;8.35;;;0.30;;
56477;SDS011;42382;53.210;5.772;2022-10-16T01:37:05;4.93;;;0.35;;
56477;SDS011;42382;53.210;5.772;2022-10-16T01:39:36;3.78;;;0.60;;
56477;SDS011;42382;53.210;5.772;2022-10-16T01:42:06;2.22;;;0.20;;
56477;SDS011;42382;53.210;5.772;2022-10-16T01:44:36;5.53;;;0.40;;
56477;SDS011;42382;53.210;5.772;2022-10-16T01:47:03;3.45;;;0.32;;
56477;SDS011;42382;53.210;5.772;2022-10-16T01:49:31;4.20;;;0.35;;
56477;SDS011;42382;53.210;5.772;2022-10-16T01:52:00;5.30;;;0.30;;
56477;SDS011;42382;53.210;5.772;2022-10-16T01:54:30;5.13;;;0.30;;
56477;SDS011;42382;53.210;5.772;2022-10-16T01:56:59;4.38;;;0.38;;
56477;SDS011;42382;53.210;5.772;2022-10-16T01:59:26;1.98;;;0.30;;
56477;SDS011;42382;53.210;5.772;2022-10-16T02:01:56;4.80;;;0.60;;
56477;SDS011;42382;53.210;5.772;2022-10-16T02:04:27;5.78;;;0.30;;
56477;SDS011;42382;53.210;5.772;2022-10-16T02:06:58;9.23;;;1.40;;
56477;SDS011;42382;53.210;5.772;2022-10-16T02:09:24;7.53;;;0.65;;
56477;SDS011;42382;53.210;5.772;2022-10-16T02:11:50;3.20;;;0.55;;
56477;SDS011;42382;53.210;5.772;2022-10-16T02:14:19;5.95;;;0.70;;
56477;SDS011;42382;53.210;5.772;2022-10-16T02:16:47;3.63;;;0.60;;
56477;SDS011;42382;53.210;5.772;2022-10-16T02:19:13;4.40;;;0.52;;
56477;SDS011;42382;53.210;5.772;2022-10-16T02:21:54;4.00;;;0.77;;
56477;SDS011;42382;53.210;5.772;2022-10-16T02:27:17;4.78;;;1.23;;
56477;SDS011;42382;53.210;5.772;2022-10-16T02:29:51;5.28;;;0.98;;
56477;SDS011;42382;53.210;5.772;2022-10-16T02:32:23;3.78;;;0.70;;
56477;SDS011;42382;53.210;5.772;2022-10-16T02:34:55;3.13;;;0.80;;
56477;SDS011;42382;53.210;5.772;2022-10-16T02:37:22;3.72;;;0.80;;
56477;SDS011;42382;53.210;5.772;2022-10-16T02:39:49;3.20;;;1.13;;
56477;SDS011;42382;53.210;5.772;2022-10-16T02:42:17;2.42;;;1.10;;
56477;SDS011;42382;53.210;5.772;2022-10-16T02:44:43;4.25;;;0.82;;
56477;SDS011;42382;53.210;5.772;2022-10-16T02:47:08;6.30;;;1.00;;
56477;SDS011;42382;53.210;5.772;2022-10-16T02:49:34;6.93;;;0.93;;
56477;SDS011;42382;53.210;5.772;2022-10-16T02:51:59;5.20;;;1.08;;
56477;SDS011;42382;53.210;5.772;2022-10-16T02:54:25;3.75;;;1.10;;
56477;SDS011;42382;53.210;5.772;2022-10-16T02:56:50;4.22;;;1.02;;
56477;SDS011;42382;53.210;5.772;2022-10-16T02:59:17;5.70;;;1.25;;
56477;SDS011;42382;53.210;5.772;2022-10-16T03:01:42;5.80;;;1.17;;
56477;SDS011;42382;53.210;5.772;2022-10-16T03:04:08;3.97;;;0.80;;
56477;SDS011;42382;53.210;5.772;2022-10-16T03:06:34;5.30;;;0.80;;
56477;SDS011;42382;53.210;5.772;2022-10-16T03:08:59;3.08;;;0.52;;
56477;SDS011;42382;53.210;5.772;2022-10-16T03:11:25;5.80;;;0.80;;
56477;SDS011;42382;53.210;5.772;2022-10-16T03:13:51;4.50;;;1.42;;
56477;SDS011;42382;53.210;5.772;2022-10-16T03:16:17;6.07;;;0.80;;
56477;SDS011;42382;53.210;5.772;2022-10-16T03:18:42;3.40;;;0.60;;
56477;SDS011;42382;53.210;5.772;2022-10-16T03:21:08;3.78;;;0.85;;
56477;SDS011;42382;53.210;5.772;2022-10-16T03:23:34;2.97;;;0.85;;
56477;SDS011;42382;53.210;5.772;2022-10-16T03:25:59;4.63;;;1.25;;
56477;SDS011;42382;53.210;5.772;2022-10-16T03:28:25;3.03;;;0.88;;
56477;SDS011;42382;53.210;5.772;2022-10-16T03:30:50;3.55;;;0.60;;
56477;SDS011;42382;53.210;5.772;2022-10-16T03:33:16;3.08;;;0.63;;
56477;SDS011;42382;53.210;5.772;2022-10-16T03:35:41;2.97;;;0.60;;
56477;SDS011;42382;53.210;5.772;2022-10-16T03:38:07;3.90;;;0.60;;
56477;SDS011;42382;53.210;5.772;2022-10-16T03:40:32;4.25;;;0.63;;
56477;SDS011;42382;53.210;5.772;2022-10-16T03:42:58;4.32;;;0.60;;
56477;SDS011;42382;53.210;5.772;2022-10-16T03:45:24;2.97;;;0.60;;
56477;SDS011;42382;53.210;5.772;2022-10-16T03:47:50;4.63;;;0.70;;
56477;SDS011;42382;53.210;5.772;2022-10-16T03:50:15;3.88;;;0.68;;
56477;SDS011;42382;53.210;5.772;2022-10-16T03:52:41;6.32;;;0.60;;
56477;SDS011;42382;53.210;5.772;2022-10-16T03:55:07;1.65;;;0.40;;
56477;SDS011;42382;53.210;5.772;2022-10-16T03:57:32;2.15;;;0.50;;
56477;SDS011;42382;53.210;5.772;2022-10-16T03:59:58;3.47;;;0.40;;
56477;SDS011;42382;53.210;5.772;2022-10-16T04:02:24;1.85;;;0.70;;
56477;SDS011;42382;53.210;5.772;2022-10-16T04:04:49;2.25;;;0.70;;
56477;SDS011;42382;53.210;5.772;2022-10-16T04:07:15;5.88;;;0.73;;
56477;SDS011;42382;53.210;5.772;2022-10-16T04:09:40;5.53;;;0.90;;
56477;SDS011;42382;53.210;5.772;2022-10-16T04:12:06;5.32;;;0.82;;
56477;SDS011;42382;53.210;5.772;2022-10-16T04:14:32;9.13;;;1.20;;
56477;SDS011;42382;53.210;5.772;2022-10-16T04:16:58;3.55;;;0.63;;
56477;SDS011;42382;53.210;5.772;2022-10-16T04:19:23;5.43;;;0.80;;
56477;SDS011;42382;53.210;5.772;2022-10-16T04:21:49;4.32;;;1.05;;
56477;SDS011;42382;53.210;5.772;2022-10-16T04:24:14;7.63;;;1.25;;
56477;SDS011;42382;53.210;5.772;2022-10-16T04:26:40;3.25;;;0.77;;
56477;SDS011;42382;53.210;5.772;2022-10-16T04:29:05;3.13;;;0.95;;
56477;SDS011;42382;53.210;5.772;2022-10-16T04:31:32;3.63;;;1.25;;
56477;SDS011;42382;53.210;5.772;2022-10-16T04:33:58;5.88;;;0.85;;
56477;SDS011;42382;53.210;5.772;2022-10-16T04:36:23;4.55;;;0.68;;
56477;SDS011;42382;53.210;5.772;2022-10-16T04:38:49;4.95;;;1.65;;
56477;SDS011;42382;53.210;5.772;2022-10-16T04:41:14;6.60;;;0.95;;
56477;SDS011;42382;53.210;5.772;2022-10-16T04:43:40;6.40;;;0.98;;
56477;SDS011;42382;53.210;5.772;2022-10-16T04:46:06;4.82;;;0.68;;
56477;SDS011;42382;53.210;5.772;2022-10-16T04:48:31;4.38;;;0.60;;
56477;SDS011;42382;53.210;5.772;2022-10-16T04:50:57;4.50;;;0.70;;
56477;SDS011;42382;53.210;5.772;2022-10-16T04:53:23;8.77;;;0.70;;
56477;SDS011;42382;53.210;5.772;2022-10-16T04:55:49;5.93;;;0.70;;
56477;SDS011;42382;53.210;5.772;2022-10-16T04:58:15;3.70;;;0.70;;
56477;SDS011;42382;53.210;5.772;2022-10-16T05:00:41;2.03;;;0.40;;
56477;SDS011;42382;53.210;5.772;2022-10-16T05:03:07;4.43;;;0.68;;
56477;SDS011;42382;53.210;5.772;2022-10-16T05:05:34;3.10;;;0.30;;
56477;SDS011;42382;53.210;5.772;2022-10-16T05:08:00;3.85;;;0.47;;
56477;SDS011;42382;53.210;5.772;2022-10-16T05:10:26;3.90;;;0.45;;
56477;SDS011;42382;53.210;5.772;2022-10-16T05:12:52;5.85;;;0.82;;
56477;SDS011;42382;53.210;5.772;2022-10-16T05:15:18;2.47;;;0.30;;
56477;SDS011;42382;53.210;5.772;2022-10-16T05:17:43;5.07;;;0.40;;
56477;SDS011;42382;53.210;5.772;2022-10-16T05:20:09;5.53;;;0.57;;
56477;SDS011;42382;53.210;5.772;2022-10-16T05:22:35;4.53;;;0.80;;
56477;SDS011;42382;53.210;5.772;2022-10-16T05:25:01;5.25;;;0.57;;
56477;SDS011;42382;53.210;5.772;2022-10-16T05:27:26;4.60;;;1.08;;
56477;SDS011;42382;53.210;5.772;2022-10-16T05:29:52;4.30;;;1.15;;
56477;SDS011;42382;53.210;5.772;2022-10-16T05:32:18;5.10;;;1.33;;
56477;SDS011;42382;53.210;5.772;2022-10-16T05:34:44;5.50;;;1.73;;
56477;SDS011;42382;53.210;5.772;2022-10-16T05:37:10;3.85;;;1.48;;
56477;SDS011;42382;53.210;5.772;2022-10-16T05:39:36;3.17;;;1.70;;
56477;SDS011;42382;53.210;5.772;2022-10-16T05:42:03;4.88;;;1.48;;
56477;SDS011;42382;53.210;5.772;2022-10-16T05:44:29;5.80;;;2.13;;
56477;SDS011;42382;53.210;5.772;2022-10-16T05:46:55;4.88;;;2.05;;
56477;SDS011;42382;53.210;5.772;2022-10-16T05:49:21;5.40;;;2.50;;
56477;SDS011;42382;53.210;5.772;2022-10-16T05:51:47;3.28;;;1.90;;
56477;SDS011;42382;53.210;5.772;2022-10-16T05:54:13;5.28;;;2.35;;
56477;SDS011;42382;53.210;5.772;2022-10-16T05:56:38;7.60;;;3.03;;
56477;SDS011;42382;53.210;5.772;2022-10-16T05:59:04;6.80;;;2.50;;
56477;SDS011;42382;53.210;5.772;2022-10-16T06:01:30;5.85;;;2.35;;
56477;SDS011;42382;53.210;5.772;2022-10-16T06:03:56;4.63;;;1.67;;
56477;SDS011;42382;53.210;5.772;2022-10-16T06:06:23;6.25;;;1.67;;
56477;SDS011;42382;53.210;5.772;2022-10-16T06:08:51;5.93;;;1.65;;
56477;SDS011;42382;53.210;5.772;2022-10-16T06:11:19;7.57;;;2.00;;
56477;SDS011;42382;53.210;5.772;2022-10-16T06:13:49;5.50;;;1.58;;
56477;SDS011;42382;53.210;5.772;2022-10-16T06:16:15;6.22;;;1.88;;
56477;SDS011;42382;53.210;5.772;2022-10-16T06:18:40;6.57;;;1.73;;
56477;SDS011;42382;53.210;5.772;2022-10-16T06:21:07;5.78;;;1.95;;
56477;SDS011;42382;53.210;5.772;2022-10-16T06:23:37;6.05;;;1.40;;
56477;SDS011;42382;53.210;5.772;2022-10-16T06:26:06;2.47;;;1.40;;
56477;SDS011;42382;53.210;5.772;2022-10-16T06:28:33;6.78;;;1.50;;
56477;SDS011;42382;53.210;5.772;2022-10-16T06:30:59;10.25;;;1.70;;
56477;SDS011;42382;53.210;5.772;2022-10-16T06:33:26;8.32;;;1.50;;
56477;SDS011;42382;53.210;5.772;2022-10-16T06:35:51;8.07;;;1.77;;
56477;SDS011;42382;53.210;5.772;2022-10-16T06:38:17;5.75;;;1.27;;
56477;SDS011;42382;53.210;5.772;2022-10-16T06:40:42;5.30;;;1.10;;
56477;SDS011;42382;53.210;5.772;2022-10-16T06:43:08;10.50;;;1.48;;
56477;SDS011;42382;53.210;5.772;2022-10-16T06:45:34;5.63;;;1.13;;
56477;SDS011;42382;53.210;5.772;2022-10-16T06:47:59;5.82;;;1.00;;
56477;SDS011;42382;53.210;5.772;2022-10-16T06:50:25;14.32;;;2.35;;
56477;SDS011;42382;53.210;5.772;2022-10-16T06:52:50;5.50;;;0.65;;
56477;SDS011;42382;53.210;5.772;2022-10-16T06:55:16;6.40;;;0.85;;
56477;SDS011;42382;53.210;5.772;2022-10-16T06:57:42;7.90;;;1.42;;
56477;SDS011;42382;53.210;5.772;2022-10-16T07:00:09;4.50;;;1.02;;
56477;SDS011;42382;53.210;5.772;2022-10-16T07:02:34;4.90;;;1.33;;
56477;SDS011;42382;53.210;5.772;2022-10-16T07:05:00;7.60;;;1.50;;
56477;SDS011;42382;53.210;5.772;2022-10-16T07:07:26;3.70;;;0.65;;
56477;SDS011;42382;53.210;5.772;2022-10-16T07:09:51;9.93;;;2.30;;
56477;SDS011;42382;53.210;5.772;2022-10-16T07:12:17;4.10;;;0.85;;
56477;SDS011;42382;53.210;5.772;2022-10-16T07:14:43;9.07;;;1.52;;
56477;SDS011;42382;53.210;5.772;2022-10-16T07:17:08;5.60;;;0.80;;
56477;SDS011;42382;53.210;5.772;2022-10-16T07:19:34;6.97;;;1.17;;
56477;SDS011;42382;53.210;5.772;2022-10-16T07:22:00;5.18;;;0.90;;
56477;SDS011;42382;53.210;5.772;2022-10-16T07:24:26;6.00;;;0.77;;
56477;SDS011;42382;53.210;5.772;2022-10-16T07:26:51;9.90;;;1.17;;
56477;SDS011;42382;53.210;5.772;2022-10-16T07:29:18;9.90;;;3.38;;
56477;SDS011;42382;53.210;5.772;2022-10-16T07:31:45;8.27;;;1.25;;
56477;SDS011;42382;53.210;5.772;2022-10-16T07:34:12;5.72;;;0.90;;
56477;SDS011;42382;53.210;5.772;2022-10-16T07:36:39;8.02;;;2.28;;
56477;SDS011;42382;53.210;5.772;2022-10-16T07:39:04;12.05;;;1.15;;
56477;SDS011;42382;53.210;5.772;2022-10-16T07:41:30;5.95;;;1.20;;
56477;SDS011;42382;53.210;5.772;2022-10-16T07:43:57;4.85;;;1.60;;
56477;SDS011;42382;53.210;5.772;2022-10-16T07:46:25;8.10;;;1.40;;
56477;SDS011;42382;53.210;5.772;2022-10-16T07:48:51;6.35;;;1.30;;
56477;SDS011;42382;53.210;5.772;2022-10-16T07:51:18;3.65;;;1.30;;
56477;SDS011;42382;53.210;5.772;2022-10-16T07:53:46;7.15;;;1.83;;
56477;SDS011;42382;53.210;5.772;2022-10-16T07:56:12;9.98;;;2.30;;
56477;SDS011;42382;53.210;5.772;2022-10-16T07:58:38;8.93;;;1.35;;
56477;SDS011;42382;53.210;5.772;2022-10-16T08:01:05;10.35;;;1.40;;
56477;SDS011;42382;53.210;5.772;2022-10-16T08:03:32;11.90;;;2.05;;
56477;SDS011;42382;53.210;5.772;2022-10-16T08:05:58;10.95;;;2.03;;
56477;SDS011;42382;53.210;5.772;2022-10-16T08:08:24;6.25;;;1.17;;
56477;SDS011;42382;53.210;5.772;2022-10-16T08:10:50;5.50;;;0.82;;
56477;SDS011;42382;53.210;5.772;2022-10-16T08:13:16;7.63;;;1.15;;
56477;SDS011;42382;53.210;5.772;2022-10-16T08:15:42;6.07;;;1.38;;
56477;SDS011;42382;53.210;5.772;2022-10-16T08:18:09;8.48;;;1.02;;
56477;SDS011;42382;53.210;5.772;2022-10-16T08:20:35;6.85;;;1.20;;
56477;SDS011;42382;53.210;5.772;2022-10-16T08:23:01;5.57;;;1.05;;
56477;SDS011;42382;53.210;5.772;2022-10-16T08:25:27;6.78;;;1.02;;
56477;SDS011;42382;53.210;5.772;2022-10-16T08:27:53;5.75;;;0.82;;
56477;SDS011;42382;53.210;5.772;2022-10-16T08:30:19;7.75;;;1.10;;
56477;SDS011;42382;53.210;5.772;2022-10-16T08:32:46;6.70;;;1.42;;
56477;SDS011;42382;53.210;5.772;2022-10-16T08:35:12;5.88;;;1.38;;
56477;SDS011;42382;53.210;5.772;2022-10-16T08:37:39;6.93;;;1.23;;
56477;SDS011;42382;53.210;5.772;2022-10-16T08:40:06;7.47;;;1.55;;
56477;SDS011;42382;53.210;5.772;2022-10-16T08:42:45;7.50;;;1.48;;
56477;SDS011;42382;53.210;5.772;2022-10-16T08:45:40;11.88;;;1.63;;
56477;SDS011;42382;53.210;5.772;2022-10-16T08:48:27;9.43;;;1.30;;
56477;SDS011;42382;53.210;5.772;2022-10-16T08:51:01;7.43;;;1.45;;
56477;SDS011;42382;53.210;5.772;2022-10-16T08:53:33;8.10;;;0.98;;
56477;SDS011;42382;53.210;5.772;2022-10-16T08:56:07;10.43;;;1.63;;
56477;SDS011;42382;53.210;5.772;2022-10-16T08:58:33;11.80;;;0.90;;
56477;SDS011;42382;53.210;5.772;2022-10-16T09:01:00;4.35;;;1.02;;
56477;SDS011;42382;53.210;5.772;2022-10-16T09:11:47;8.15;;;0.73;;
56477;SDS011;42382;53.210;5.772;2022-10-16T09:20:20;8.65;;;1.85;;
56477;SDS011;42382;53.210;5.772;2022-10-16T09:22:43;10.25;;;2.35;;
56477;SDS011;42382;53.210;5.772;2022-10-16T09:25:12;10.07;;;1.02;;
56477;SDS011;42382;53.210;5.772;2022-10-16T09:27:40;9.63;;;1.90;;
56477;SDS011;42382;53.210;5.772;2022-10-16T09:30:19;12.65;;;2.55;;
56477;SDS011;42382;53.210;5.772;2022-10-16T09:32:46;8.23;;;1.20;;
56477;SDS011;42382;53.210;5.772;2022-10-16T09:35:19;7.25;;;0.82;;
56477;SDS011;42382;53.210;5.772;2022-10-16T09:37:48;9.52;;;0.90;;
56477;SDS011;42382;53.210;5.772;2022-10-16T09:40:31;17.17;;;1.20;;
56477;SDS011;42382;53.210;5.772;2022-10-16T09:45:27;9.50;;;1.30;;
56477;SDS011;42382;53.210;5.772;2022-10-16T09:47:53;13.57;;;0.88;;
56477;SDS011;42382;53.210;5.772;2022-10-16T09:50:23;10.38;;;1.10;;
56477;SDS011;42382;53.210;5.772;2022-10-16T09:53:03;12.13;;;1.25;;
56477;SDS011;42382;53.210;5.772;2022-10-16T09:55:53;8.45;;;1.27;;
56477;SDS011;42382;53.210;5.772;2022-10-16T09:58:22;13.27;;;1.60;;
56477;SDS011;42382;53.210;5.772;2022-10-16T10:00:50;9.05;;;1.27;;
56477;SDS011;42382;53.210;5.772;2022-10-16T10:03:39;23.20;;;8.68;;
56477;SDS011;42382;53.210;5.772;2022-10-16T10:06:24;15.48;;;2.85;;
56477;SDS011;42382;53.210;5.772;2022-10-16T10:08:57;28.45;;;10.55;;
56477;SDS011;42382;53.210;5.772;2022-10-16T10:11:56;21.17;;;7.47;;
56477;SDS011;42382;53.210;5.772;2022-10-16T10:14:35;18.05;;;2.85;;
56477;SDS011;42382;53.210;5.772;2022-10-16T10:19:48;16.13;;;2.10;;
56477;SDS011;42382;53.210;5.772;2022-10-16T10:35:44;11.75;;;1.60;;
56477;SDS011;42382;53.210;5.772;2022-10-16T10:40:56;17.60;;;2.35;;
56477;SDS011;42382;53.210;5.772;2022-10-16T10:43:50;19.10;;;2.30;;
56477;SDS011;42382;53.210;5.772;2022-10-16T10:46:45;13.20;;;2.05;;
56477;SDS011;42382;53.210;5.772;2022-10-16T10:49:22;15.38;;;2.30;;
56477;SDS011;42382;53.210;5.772;2022-10-16T11:05:40;9.52;;;1.00;;
56477;SDS011;42382;53.210;5.772;2022-10-16T11:08:21;7.13;;;0.90;;
56477;SDS011;42382;53.210;5.772;2022-10-16T11:11:02;10.35;;;1.40;;
56477;SDS011;42382;53.210;5.772;2022-10-16T11:13:36;13.02;;;1.15;;
56477;SDS011;42382;53.210;5.772;2022-10-16T11:16:17;7.35;;;1.20;;
56477;SDS011;42382;53.210;5.772;2022-10-16T11:21:25;10.95;;;1.40;;
56477;SDS011;42382;53.210;5.772;2022-10-16T11:23:58;9.52;;;1.23;;
56477;SDS011;42382;53.210;5.772;2022-10-16T11:26:33;12.73;;;1.15;;
56477;SDS011;42382;53.210;5.772;2022-10-16T11:29:04;9.90;;;1.00;;
56477;SDS011;42382;53.210;5.772;2022-10-16T11:31:38;9.27;;;1.00;;
56477;SDS011;42382;53.210;5.772;2022-10-16T11:34:21;10.45;;;2.00;;
56477;SDS011;42382;53.210;5.772;2022-10-16T11:37:11;9.98;;;1.52;;
56477;SDS011;42382;53.210;5.772;2022-10-16T11:39:42;9.30;;;2.17;;
56477;SDS011;42382;53.210;5.772;2022-10-16T11:42:29;13.43;;;1.40;;
56477;SDS011;42382;53.210;5.772;2022-10-16T11:52:42;10.48;;;0.98;;
56477;SDS011;42382;53.210;5.772;2022-10-16T11:55:17;9.10;;;1.25;;
56477;SDS011;42382;53.210;5.772;2022-10-16T11:58:01;10.57;;;0.93;;
56477;SDS011;42382;53.210;5.772;2022-10-16T12:00:35;10.55;;;1.17;;
56477;SDS011;42382;53.210;5.772;2022-10-16T12:08:36;8.60;;;0.82;;
56477;SDS011;42382;53.210;5.772;2022-10-16T12:11:06;12.10;;;1.23;;
56477;SDS011;42382;53.210;5.772;2022-10-16T12:13:47;9.65;;;1.25;;
56477;SDS011;42382;53.210;5.772;2022-10-16T12:18:42;10.63;;;1.42;;
56477;SDS011;42382;53.210;5.772;2022-10-16T12:21:09;15.82;;;1.40;;
56477;SDS011;42382;53.210;5.772;2022-10-16T12:24:00;11.00;;;0.80;;
56477;SDS011;42382;53.210;5.772;2022-10-16T12:26:26;16.25;;;1.63;;
56477;SDS011;42382;53.210;5.772;2022-10-16T12:28:54;12.10;;;1.13;;
56477;SDS011;42382;53.210;5.772;2022-10-16T12:31:45;7.32;;;1.00;;
56477;SDS011;42382;53.210;5.772;2022-10-16T12:34:23;13.70;;;0.95;;
56477;SDS011;42382;53.210;5.772;2022-10-16T12:37:20;10.35;;;1.17;;
56477;SDS011;42382;53.210;5.772;2022-10-16T12:39:49;9.70;;;1.30;;
56477;SDS011;42382;53.210;5.772;2022-10-16T12:44:48;13.48;;;1.05;;
56477;SDS011;42382;53.210;5.772;2022-10-16T12:47:21;9.02;;;0.77;;
56477;SDS011;42382;53.210;5.772;2022-10-16T12:49:56;11.98;;;1.27;;
56477;SDS011;42382;53.210;5.772;2022-10-16T12:52:26;10.15;;;1.63;;
56477;SDS011;42382;53.210;5.772;2022-10-16T12:55:02;13.02;;;1.23;;
56477;SDS011;42382;53.210;5.772;2022-10-16T13:00:45;13.05;;;1.42;;
56477;SDS011;42382;53.210;5.772;2022-10-16T13:06:39;9.55;;;1.08;;
56477;SDS011;42382;53.210;5.772;2022-10-16T13:17:45;9.32;;;1.30;;
56477;SDS011;42382;53.210;5.772;2022-10-16T13:28:48;11.30;;;1.20;;
56477;SDS011;42382;53.210;5.772;2022-10-16T13:31:18;13.65;;;1.35;;
56477;SDS011;42382;53.210;5.772;2022-10-16T13:33:48;15.73;;;1.63;;
56477;SDS011;42382;53.210;5.772;2022-10-16T13:36:21;11.15;;;1.10;;
56477;SDS011;42382;53.210;5.772;2022-10-16T13:39:06;11.43;;;1.48;;
56477;SDS011;42382;53.210;5.772;2022-10-16T13:41:46;8.10;;;0.98;;
56477;SDS011;42382;53.210;5.772;2022-10-16T13:44:23;11.00;;;1.67;;
56477;SDS011;42382;53.210;5.772;2022-10-16T13:46:57;10.52;;;1.08;;
56477;SDS011;42382;53.210;5.772;2022-10-16T13:49:24;12.65;;;1.33;;
56477;SDS011;42382;53.210;5.772;2022-10-16T13:51:53;12.82;;;1.92;;
56477;SDS011;42382;53.210;5.772;2022-10-16T13:54:20;10.60;;;1.80;;
56477;SDS011;42382;53.210;5.772;2022-10-16T13:56:46;10.90;;;1.65;;
56477;SDS011;42382;53.210;5.772;2022-10-16T13:59:24;9.02;;;1.25;;
56477;SDS011;42382;53.210;5.772;2022-10-16T14:02:00;6.47;;;1.42;;
56477;SDS011;42382;53.210;5.772;2022-10-16T14:04:43;13.02;;;1.20;;
56477;SDS011;42382;53.210;5.772;2022-10-16T14:07:29;9.70;;;0.98;;
56477;SDS011;42382;53.210;5.772;2022-10-16T14:09:58;7.00;;;0.50;;
56477;SDS011;42382;53.210;5.772;2022-10-16T14:12:28;11.52;;;1.90;;
56477;SDS011;42382;53.210;5.772;2022-10-16T14:14:54;7.22;;;0.60;;
56477;SDS011;42382;53.210;5.772;2022-10-16T14:17:23;10.13;;;1.73;;
56477;SDS011;42382;53.210;5.772;2022-10-16T14:19:52;7.15;;;0.75;;
56477;SDS011;42382;53.210;5.772;2022-10-16T14:22:28;11.70;;;1.17;;
56477;SDS011;42382;53.210;5.772;2022-10-16T14:24:59;10.18;;;0.77;;
56477;SDS011;42382;53.210;5.772;2022-10-16T14:27:33;7.70;;;0.70;;
56477;SDS011;42382;53.210;5.772;2022-10-16T14:32:52;11.88;;;2.65;;
56477;SDS011;42382;53.210;5.772;2022-10-16T14:35:23;14.70;;;1.65;;
56477;SDS011;42382;53.210;5.772;2022-10-16T14:37:55;9.32;;;1.38;;
56477;SDS011;42382;53.210;5.772;2022-10-16T14:40:23;8.68;;;1.70;;
56477;SDS011;42382;53.210;5.772;2022-10-16T14:42:50;9.85;;;1.45;;
56477;SDS011;42382;53.210;5.772;2022-10-16T14:45:23;11.65;;;1.38;;
56477;SDS011;42382;53.210;5.772;2022-10-16T14:47:52;7.20;;;1.00;;
56477;SDS011;42382;53.210;5.772;2022-10-16T14:50:21;22.17;;;7.55;;
56477;SDS011;42382;53.210;5.772;2022-10-16T14:52:47;12.82;;;1.92;;
56477;SDS011;42382;53.210;5.772;2022-10-16T14:55:13;8.98;;;1.63;;
56477;SDS011;42382;53.210;5.772;2022-10-16T14:57:39;12.73;;;1.52;;
56477;SDS011;42382;53.210;5.772;2022-10-16T15:00:19;10.80;;;1.30;;
56477;SDS011;42382;53.210;5.772;2022-10-16T15:02:49;15.15;;;2.03;;
56477;SDS011;42382;53.210;5.772;2022-10-16T15:07:48;9.88;;;1.17;;
56477;SDS011;42382;53.210;5.772;2022-10-16T15:10:16;12.43;;;1.83;;
56477;SDS011;42382;53.210;5.772;2022-10-16T15:12:42;11.75;;;1.33;;
56477;SDS011;42382;53.210;5.772;2022-10-16T15:17:49;8.68;;;0.80;;
56477;SDS011;42382;53.210;5.772;2022-10-16T15:20:21;13.43;;;1.65;;
56477;SDS011;42382;53.210;5.772;2022-10-16T15:22:47;14.98;;;1.85;;
56477;SDS011;42382;53.210;5.772;2022-10-16T15:25:27;9.18;;;1.13;;
56477;SDS011;42382;53.210;5.772;2022-10-16T15:28:00;15.20;;;1.50;;
56477;SDS011;42382;53.210;5.772;2022-10-16T15:30:27;11.25;;;1.17;;
56477;SDS011;42382;53.210;5.772;2022-10-16T15:32:53;10.65;;;1.73;;
56477;SDS011;42382;53.210;5.772;2022-10-16T15:35:19;15.65;;;1.75;;
56477;SDS011;42382;53.210;5.772;2022-10-16T15:37:46;9.38;;;0.90;;
56477;SDS011;42382;53.210;5.772;2022-10-16T15:40:13;10.50;;;1.13;;
56477;SDS011;42382;53.210;5.772;2022-10-16T15:42:39;8.90;;;0.98;;
56477;SDS011;42382;53.210;5.772;2022-10-16T15:45:05;13.43;;;1.42;;
56477;SDS011;42382;53.210;5.772;2022-10-16T15:47:33;17.52;;;1.38;;
56477;SDS011;42382;53.210;5.772;2022-10-16T15:49:59;11.43;;;1.50;;
56477;SDS011;42382;53.210;5.772;2022-10-16T15:52:24;8.75;;;0.82;;
56477;SDS011;42382;53.210;5.772;2022-10-16T15:54:50;10.32;;;1.52;;
56477;SDS011;42382;53.210;5.772;2022-10-16T15:57:15;12.50;;;1.55;;
56477;SDS011;42382;53.210;5.772;2022-10-16T15:59:41;9.13;;;1.30;;
56477;SDS011;42382;53.210;5.772;2022-10-16T16:02:07;8.43;;;1.15;;
56477;SDS011;42382;53.210;5.772;2022-10-16T16:04:34;7.85;;;1.50;;
56477;SDS011;42382;53.210;5.772;2022-10-16T16:06:59;10.68;;;1.30;;
56477;SDS011;42382;53.210;5.772;2022-10-16T16:09:26;12.60;;;1.20;;
56477;SDS011;42382;53.210;5.772;2022-10-16T16:11:53;8.90;;;0.90;;
56477;SDS011;42382;53.210;5.772;2022-10-16T16:14:19;7.82;;;1.33;;
56477;SDS011;42382;53.210;5.772;2022-10-16T16:16:45;9.68;;;1.23;;
56477;SDS011;42382;53.210;5.772;2022-10-16T16:19:10;9.60;;;1.23;;
56477;SDS011;42382;53.210;5.772;2022-10-16T16:21:36;8.40;;;1.05;;
56477;SDS011;42382;53.210;5.772;2022-10-16T16:24:01;10.38;;;1.08;;
56477;SDS011;42382;53.210;5.772;2022-10-16T16:26:33;8.80;;;0.80;;
56477;SDS011;42382;53.210;5.772;2022-10-16T16:29:01;8.70;;;1.10;;
56477;SDS011;42382;53.210;5.772;2022-10-16T16:31:29;11.40;;;2.10;;
56477;SDS011;42382;53.210;5.772;2022-10-16T16:33:56;10.82;;;1.67;;
56477;SDS011;42382;53.210;5.772;2022-10-16T16:36:22;14.55;;;3.78;;
56477;SDS011;42382;53.210;5.772;2022-10-16T16:38:49;7.63;;;1.63;;
56477;SDS011;42382;53.210;5.772;2022-10-16T16:41:16;8.25;;;1.75;;
56477;SDS011;42382;53.210;5.772;2022-10-16T16:43:44;9.27;;;1.58;;
56477;SDS011;42382;53.210;5.772;2022-10-16T16:46:10;11.68;;;1.80;;
56477;SDS011;42382;53.210;5.772;2022-10-16T16:48:36;8.70;;;1.23;;
56477;SDS011;42382;53.210;5.772;2022-10-16T16:51:03;12.85;;;1.92;;
56477;SDS011;42382;53.210;5.772;2022-10-16T16:53:35;12.65;;;1.52;;
56477;SDS011;42382;53.210;5.772;2022-10-16T16:56:02;10.93;;;1.00;;